Weather at Bartell Strip [CLOSED]

Public forecast

Using degrees Fahrenheit for public forecast. Weather courtesy of forecast.io.

Closest aviation weather report (METAR) to Bartell Strip

Closest report is Waukesha County Airport, 8.2 nm (15.1 km) NE. Retrieved 2021/06/25 02:55 UTC (10 minutes ago):

KUES 250255Z AUTO 15003KT 10SM CLR 18/17 A2995 RMK AO2

Closest aviation forecast (TAF) to Bartell Strip

Closest forecast is Waukesha County Airport, 8.2 nm (15.1 km) NE. Retrieved 2021-06-25 00:46 UTC (2 hours ago):

TAF KUES 242344Z 2500/2524 19012G18KT P6SM OVC050 FM250200 19009KT P6SM OVC025 FM250300 19007KT P6SM OVC009 FM250600 19005KT 6SM -SHRA BR VCTS OVC005CB FM251600 30005KT P6SM OVC007 FM251800 29005KT P6SM OVC010